Ever Diamond — 3FQS8 — position and weather

sailwx.info

Track history (hours):
 
Tides and Currents Weather Stations Pressure Air Temp Water Temp Dewpoint Dewpoint Depression Visibility Wind Speed Wind Dir Waves Ship Positions

Ever Diamond

Last reported at 2015-Apr-25 17:06 UTC. Time now 2015-Apr-25 18:11 UTC.
Position N 29°53' E 122°03'.

Type: Ship (hazmat cat D). MMSI: 354893000.

Date/timePositionNaut miles runAvg speedWind from/ knotsBaromVisibWave heightAir tempDewpointWater temp
2015-Apr-25 17:06N 29°53' E 122°03'0 0.0
2015-Apr-25 16:30N 29°53' E 122°03'0 0.0
2015-Apr-25 15:30N 29°53' E 122°03'0 0.1
2015-Apr-25 14:24N 29°53' E 122°03'0 0.1
2015-Apr-25 13:24N 29°53' E 122°03'0 0.0
2015-Apr-25 12:30N 29°53' E 122°03'0 0.0
2015-Apr-25 11:24N 29°53' E 122°03'1 1.0
2015-Apr-25 10:33N 29°54' E 122°03'4 3.6
2015-Apr-25 09:33N 29°56' E 122°07'10 9.9
2015-Apr-25 08:33N 29°48' E 122°15'8 8.3
2015-Apr-25 07:33N 29°45' E 122°24'0 0.1
2015-Apr-25 06:24N 29°45' E 122°24'0 0.0
2015-Apr-25 01:12N 29°45' E 122°24'0 0.0
2015-Apr-25 00:18N 29°45' E 122°24'0 0.0
2015-Apr-24 21:12N 29°45' E 122°24'0 0.1
2015-Apr-24 20:18N 29°45' E 122°24'0 0.1
2015-Apr-24 19:12N 29°45' E 122°24'0 0.1
2015-Apr-24 18:30N 29°45' E 122°23'0 0.1
2015-Apr-24 17:30N 29°45' E 122°23'0 0.5
2015-Apr-24 16:33N 29°45' E 122°24'8 8.1
2015-Apr-24 15:33N 29°40' E 122°32'1514.4
2015-Apr-24 14:29N 29°25' E 122°32'1414.3
2015-Apr-24 13:31N 29°11' E 122°32'40414.3
2015-Apr-23 09:16N 23°34' E 118°22'21713.0
2015-Apr-22 16:33N 22°22' E 114°40'2511.4
2015-Apr-22 14:22N 22°34' E 114°16'1 0.7
2015-Apr-22 13:11N 22°34' E 114°16'0 0.0
2015-Apr-22 11:05N 22°34' E 114°16'0 0.0
2015-Apr-22 10:11N 22°34' E 114°16'0 0.0
2015-Apr-22 08:23N 22°34' E 114°16'0 0.0
2015-Apr-22 07:17N 22°34' E 114°16'0 0.0
2015-Apr-22 06:25N 22°34' E 114°16'0 0.0
2015-Apr-22 05:25N 22°34' E 114°16'1 1.0
2015-Apr-22 04:30N 22°34' E 114°16'15 5.1
2015-Apr-22 01:31N 22°22' E 114°28'1111.8
2015-Apr-22 00:33N 22°12' E 114°23'1010.3
2015-Apr-21 23:33N 22°08' E 114°13'1110.6
2015-Apr-21 22:33N 22°16' E 114°06'3 3.2
2015-Apr-21 21:31N 22°20' E 114°08'0 0.1
2015-Apr-21 20:31N 22°19' E 114°08'0 0.0
2015-Apr-21 19:31N 22°20' E 114°08'0 0.0
2015-Apr-21 18:31N 22°20' E 114°08'0 0.0
2015-Apr-21 17:31N 22°19' E 114°08'0 0.0
2015-Apr-21 16:31N 22°20' E 114°08'0 0.1
2015-Apr-21 15:31N 22°20' E 114°08'0 0.0
2015-Apr-21 14:31N 22°20' E 114°08'0 0.0
2015-Apr-21 13:31N 22°20' E 114°08'0 0.0
2015-Apr-21 12:28N 22°20' E 114°08'0 0.1
2015-Apr-21 11:28N 22°20' E 114°08'3 2.8
2015-Apr-21 10:33N 22°17' E 114°06'1110.8
2015-Apr-21 09:33N 22°09' E 114°14'1413.4
2015-Apr-21 08:30N 22°09' E 114°29'245 9.1
2015-Apr-20 05:33N 22°25' E 118°53'1814.5
2015-Apr-20 04:17N 22°27' E 119°12'1114.8
2015-Apr-20 03:33N 22°27' E 119°24'1414.0
2015-Apr-20 02:33N 22°27' E 119°39'1414.3
2015-Apr-20 01:33N 22°26' E 119°55'9 9.3
2015-Apr-20 00:33N 22°31' E 120°04'1312.9
2015-Apr-19 23:33N 22°33' E 120°17'2 2.2
2015-Apr-19 22:33N 22°33' E 120°20'0 0.0
2015-Apr-19 21:33N 22°33' E 120°20'0 0.0
2015-Apr-19 20:32N 22°33' E 120°20'0 0.0
2015-Apr-19 19:32N 22°33' E 120°20'0 0.0
2015-Apr-19 18:32N 22°33' E 120°20'0 0.0
2015-Apr-19 17:32N 22°33' E 120°20'0 0.0
2015-Apr-19 16:29N 22°33' E 120°20'0 0.0
2015-Apr-19 15:32N 22°33' E 120°20'0 0.0
2015-Apr-19 14:32N 22°33' E 120°20'0 0.0
2015-Apr-19 13:32N 22°33' E 120°20'0 0.0
2015-Apr-19 12:29N 22°33' E 120°20'0 0.0
2015-Apr-19 11:32N 22°33' E 120°20'0 0.0
2015-Apr-19 10:33N 22°33' E 120°20'0 0.0
2015-Apr-19 09:33N 22°33' E 120°20'0 0.0
2015-Apr-19 08:31N 22°33' E 120°20'0 0.0
2015-Apr-19 07:31N 22°33' E 120°20'0 0.0
2015-Apr-19 06:31N 22°33' E 120°20'0 0.1
2015-Apr-19 05:33N 22°33' E 120°20'7 7.0
2015-Apr-19 04:33N 22°30' E 120°13'1413.9
2015-Apr-19 03:33N 22°16' E 120°17'1615.9
2015-Apr-19 02:33N 22°03' E 120°27'1917.6
2015-Apr-19 01:28N 21°49' E 120°41'1616.7
2015-Apr-19 00:30N 21°49' E 120°58'2016.5
2015-Apr-18 23:18N 21°49' E 121°20'1315.8
2015-Apr-18 22:28N 21°49' E 121°34'36716.3
2015-Apr-18 00:00N 22°42' E 128°06'   110 / 121017.010.8 1.525.022.926.0
Track history (hours):
 
Tides and Currents Weather Stations Pressure Air Temp Water Temp Dewpoint Dewpoint Depression Visibility Wind Speed Wind Dir Waves Ship Positions

Ever Diamond

Last reported at 2015-Apr-25 17:06 UTC. Time now 2015-Apr-25 18:11 UTC.
Position N 29°53' E 122°03'.

Type: Ship (hazmat cat D). MMSI: 354893000.

Date/timePositionNaut miles runAvg speedWind from/ knotsBaromVisibWave heightAir tempDewpointWater temp
2015-Apr-25 17:06N 29°53' E 122°03'0 0.0
2015-Apr-25 16:30N 29°53' E 122°03'0 0.0
2015-Apr-25 15:30N 29°53' E 122°03'0 0.1
2015-Apr-25 14:24N 29°53' E 122°03'0 0.1
2015-Apr-25 13:24N 29°53' E 122°03'0 0.0
2015-Apr-25 12:30N 29°53' E 122°03'0 0.0
2015-Apr-25 11:24N 29°53' E 122°03'1 1.0
2015-Apr-25 10:33N 29°54' E 122°03'4 3.6
2015-Apr-25 09:33N 29°56' E 122°07'10 9.9
2015-Apr-25 08:33N 29°48' E 122°15'8 8.3
2015-Apr-25 07:33N 29°45' E 122°24'0 0.1
2015-Apr-25 06:24N 29°45' E 122°24'0 0.0
2015-Apr-25 01:12N 29°45' E 122°24'0 0.0
2015-Apr-25 00:18N 29°45' E 122°24'0 0.0
2015-Apr-24 21:12N 29°45' E 122°24'0 0.1
2015-Apr-24 20:18N 29°45' E 122°24'0 0.1
2015-Apr-24 19:12N 29°45' E 122°24'0 0.1
2015-Apr-24 18:30N 29°45' E 122°23'0 0.1
2015-Apr-24 17:30N 29°45' E 122°23'0 0.5
2015-Apr-24 16:33N 29°45' E 122°24'8 8.1
2015-Apr-24 15:33N 29°40' E 122°32'1514.4
2015-Apr-24 14:29N 29°25' E 122°32'1414.3
2015-Apr-24 13:31N 29°11' E 122°32'40414.3
2015-Apr-23 09:16N 23°34' E 118°22'21713.0
2015-Apr-22 16:33N 22°22' E 114°40'2511.4
2015-Apr-22 14:22N 22°34' E 114°16'1 0.7
2015-Apr-22 13:11N 22°34' E 114°16'0 0.0
2015-Apr-22 11:05N 22°34' E 114°16'0 0.0
2015-Apr-22 10:11N 22°34' E 114°16'0 0.0
2015-Apr-22 08:23N 22°34' E 114°16'0 0.0
2015-Apr-22 07:17N 22°34' E 114°16'0 0.0
2015-Apr-22 06:25N 22°34' E 114°16'0 0.0
2015-Apr-22 05:25N 22°34' E 114°16'1 1.0
2015-Apr-22 04:30N 22°34' E 114°16'15 5.1
2015-Apr-22 01:31N 22°22' E 114°28'1111.8
2015-Apr-22 00:33N 22°12' E 114°23'1010.3
2015-Apr-21 23:33N 22°08' E 114°13'1110.6
2015-Apr-21 22:33N 22°16' E 114°06'3 3.2
2015-Apr-21 21:31N 22°20' E 114°08'0 0.1
2015-Apr-21 20:31N 22°19' E 114°08'0 0.0
2015-Apr-21 19:31N 22°20' E 114°08'0 0.0
2015-Apr-21 18:31N 22°20' E 114°08'0 0.0
2015-Apr-21 17:31N 22°19' E 114°08'0 0.0
2015-Apr-21 16:31N 22°20' E 114°08'0 0.1
2015-Apr-21 15:31N 22°20' E 114°08'0 0.0
2015-Apr-21 14:31N 22°20' E 114°08'0 0.0
2015-Apr-21 13:31N 22°20' E 114°08'0 0.0
2015-Apr-21 12:28N 22°20' E 114°08'0 0.1
2015-Apr-21 11:28N 22°20' E 114°08'3 2.8
2015-Apr-21 10:33N 22°17' E 114°06'1110.8
2015-Apr-21 09:33N 22°09' E 114°14'1413.4
2015-Apr-21 08:30N 22°09' E 114°29'245 9.1
2015-Apr-20 05:33N 22°25' E 118°53'1814.5
2015-Apr-20 04:17N 22°27' E 119°12'1114.8
2015-Apr-20 03:33N 22°27' E 119°24'1414.0
2015-Apr-20 02:33N 22°27' E 119°39'1414.3
2015-Apr-20 01:33N 22°26' E 119°55'9 9.3
2015-Apr-20 00:33N 22°31' E 120°04'1312.9
2015-Apr-19 23:33N 22°33' E 120°17'2 2.2
2015-Apr-19 22:33N 22°33' E 120°20'0 0.0
2015-Apr-19 21:33N 22°33' E 120°20'0 0.0
2015-Apr-19 20:32N 22°33' E 120°20'0 0.0
2015-Apr-19 19:32N 22°33' E 120°20'0 0.0
2015-Apr-19 18:32N 22°33' E 120°20'0 0.0
2015-Apr-19 17:32N 22°33' E 120°20'0 0.0
2015-Apr-19 16:29N 22°33' E 120°20'0 0.0
2015-Apr-19 15:32N 22°33' E 120°20'0 0.0
2015-Apr-19 14:32N 22°33' E 120°20'0 0.0
2015-Apr-19 13:32N 22°33' E 120°20'0 0.0
2015-Apr-19 12:29N 22°33' E 120°20'0 0.0
2015-Apr-19 11:32N 22°33' E 120°20'0 0.0
2015-Apr-19 10:33N 22°33' E 120°20'0 0.0
2015-Apr-19 09:33N 22°33' E 120°20'0 0.0
2015-Apr-19 08:31N 22°33' E 120°20'0 0.0
2015-Apr-19 07:31N 22°33' E 120°20'0 0.0
2015-Apr-19 06:31N 22°33' E 120°20'0 0.1
2015-Apr-19 05:33N 22°33' E 120°20'7 7.0
2015-Apr-19 04:33N 22°30' E 120°13'1413.9
2015-Apr-19 03:33N 22°16' E 120°17'1615.9
2015-Apr-19 02:33N 22°03' E 120°27'1917.6
2015-Apr-19 01:28N 21°49' E 120°41'1616.7
2015-Apr-19 00:30N 21°49' E 120°58'2016.5
2015-Apr-18 23:18N 21°49' E 121°20'1315.8
2015-Apr-18 22:28N 21°49' E 121°34'36716.3
2015-Apr-18 00:00N 22°42' E 128°06'   110 / 121017.010.8 1.525.022.926.0

Dump ship's entire track history